KDAG

Barstow-Daggett Airport

Daggett, California, USA
METAR KDAG 161350Z AUTO 26007KT 10SM FEW120 11/M13 A2971 RMK AO2 SLP051 T01111128
Observed Flight Rules
Dec-16 @ 13:50 UTC (49 minutes ago) Visual Flight Rules
Wind Visibility Clouds
260° at 7 knots 10 miles
  • Few at 12,000' AGL
Temperatures Readings
Current 11°C / 52°F
Dewpoint -13°C / 9°F
Humidity 17%
Altimeter 29.71" Hg
Pressure 1005.1 hPa
Elevation 587
METAR KDAG 161350Z AUTO 26007KT 10SM FEW120 11/M13 A2971 RMK AO2 SLP051 T01111128
Observed Flight Rules
Dec-16 @ 13:50 UTC
(49 minutes ago)
VFR
Wind Visibility
260° at 7 knots 10 miles
Clouds
  • Few at 12,000' AGL
Temperature Dewpoint
11°C / 52°F -13°C / 9°F
Humidity Altimeter Pressure
17% 29.71" Hg 1005.1 hPa